Terminal Aerodrome Forecast
Issued by NWS Bismarck, ND

Home | Current Version | Previous Version | Text Only | Print | Product List | Glossary Off
Versions: 1 2 3 4 5 6 7 8 9 10 11 12 13 14 15 16 17 18 19 20 21 22 23 24 25 26 27

458
FTUS43 KBIS 040202 AAC
TAFBIS
TAF AMD
KBIS 040202Z 0402/0424 20005KT P6SM -SN SCT015 OVC040
      TEMPO 0402/0403 2SM -SN BR BKN015 OVC040
     FM040500 24006KT P6SM BKN020 OVC050
     FM040900 28008KT P6SM BKN015
     FM041400 28007KT P6SM BKN050
     FM041700 27007KT P6SM SCT150=

USA.gov is the U.S. government's official web portal to all federal, state and local government web resources and services.